Time;durP1;ratioP1;P1;durP2;ratioP2;P2;SDS_P1;SDS_P2;PMS_P1;PMS_P2;Temp;Humidity;BMP_temperature;BMP_pressure;BME280_temperature;BME280_humidity;BME280_pressure;Samples;Min_cycle;Max_cycle;Signal;HPM_P1;HPM_P2
2023/04/14 00:01:02;;;;;;;3.40;2.13;;;7.90;99.90;;;;;;5111860;28;20201;-78
2023/04/14 00:03:29;;;;;;;3.97;1.37;;;7.90;99.90;;;;;;5111824;28;20289;-78
2023/04/14 00:05:56;;;;;;;2.57;1.37;;;7.90;99.90;;;;;;5112247;28;20570;-78
2023/04/14 00:08:23;;;;;;;6.70;1.90;;;7.90;99.90;;;;;;5112248;28;20268;-75
2023/04/14 00:10:50;;;;;;;5.23;1.40;;;7.80;99.90;;;;;;5112206;28;20248;-79
2023/04/14 00:13:17;;;;;;;3.33;1.30;;;7.80;99.90;;;;;;5111927;28;20236;-79
2023/04/14 00:15:45;;;;;;;5.27;2.17;;;7.70;99.90;;;;;;5111552;28;20644;-81
2023/04/14 00:18:12;;;;;;;4.40;1.60;;;7.60;99.90;;;;;;5111918;28;20632;-81
2023/04/14 00:20:39;;;;;;;3.43;1.70;;;7.60;99.90;;;;;;5111705;28;20232;-82
2023/04/14 00:23:06;;;;;;;5.60;2.17;;;7.70;99.90;;;;;;5111912;28;20236;-81
2023/04/14 00:25:33;;;;;;;2.03;1.30;;;7.80;99.90;;;;;;5111545;28;20247;-82
2023/04/14 00:28:00;;;;;;;4.90;1.77;;;7.70;99.90;;;;;;5111610;28;20276;-82
2023/04/14 00:30:27;;;;;;;2.50;1.80;;;7.70;99.90;;;;;;5111554;28;20233;-83
2023/04/14 00:32:55;;;;;;;5.23;2.50;;;7.70;99.90;;;;;;5111919;28;20236;-83
2023/04/14 00:35:23;;;;;;;5.73;2.37;;;7.80;99.90;;;;;;5112237;28;20233;-82
2023/04/14 00:37:50;;;;;;;4.77;2.13;;;7.80;99.90;;;;;;5112058;28;20203;-83
2023/04/14 00:40:17;;;;;;;7.20;1.83;;;7.80;99.90;;;;;;5111761;28;20299;-84
2023/04/14 00:42:45;;;;;;;6.17;1.90;;;7.80;99.90;;;;;;5111505;28;20684;-84
2023/04/14 00:45:12;;;;;;;3.73;0.77;;;7.90;99.90;;;;;;5111735;28;20246;-82
2023/04/14 00:47:41;;;;;;;2.77;2.03;;;8.00;99.90;;;;;;5110998;28;20719;-83
2023/04/14 00:50:11;;;;;;;5.30;1.00;;;8.00;99.90;;;;;;5111594;28;20201;-80
2023/04/14 00:52:39;;;;;;;2.47;1.13;;;8.00;99.90;;;;;;5111099;28;20667;-82
2023/04/14 00:55:07;;;;;;;4.37;1.67;;;8.00;99.90;;;;;;5111154;28;20667;-81
2023/04/14 00:57:35;;;;;;;2.00;0.80;;;8.10;99.90;;;;;;5111281;28;20240;-80
2023/04/14 01:00:03;;;;;;;4.93;2.10;;;8.20;99.90;;;;;;5111587;28;20223;-81
2023/04/14 01:02:30;;;;;;;9.37;1.60;;;8.20;99.90;;;;;;5110922;28;20295;-82
2023/04/14 01:04:57;;;;;;;4.30;1.20;;;8.30;99.90;;;;;;5111172;28;20614;-82
2023/04/14 01:07:27;;;;;;;5.87;1.07;;;8.30;99.90;;;;;;5111345;28;20251;-80
2023/04/14 01:09:56;;;;;;;9.80;1.27;;;8.30;99.90;;;;;;5111643;28;20232;-79
2023/04/14 01:12:35;;;;;;;1.97;1.00;;;8.40;99.90;;;;;;5112096;28;20201;-80
2023/04/14 01:15:11;;;;;;;2.77;1.17;;;8.40;99.90;;;;;;5115450;28;20687;-79
2023/04/14 01:17:44;;;;;;;1.40;0.80;;;8.40;99.90;;;;;;5114753;28;20200;-81
2023/04/14 01:20:18;;;;;;;4.20;1.30;;;8.40;99.90;;;;;;5114934;28;20201;-80
2023/04/14 01:22:51;;;;;;;1.23;0.80;;;8.40;99.90;;;;;;5115002;28;20232;-81
2023/04/14 01:25:57;;;;;;;2.90;2.10;;;8.40;99.90;;;;;;5115226;28;20231;-81
2023/04/14 01:28:42;;;;;;;2.03;1.17;;;8.40;99.90;;;;;;5115421;28;20270;-78
2023/04/14 01:31:27;;;;;;;1.70;0.67;;;8.40;99.90;;;;;;5115034;28;20208;-79
2023/04/14 01:33:59;;;;;;;1.97;0.90;;;8.40;99.90;;;;;;5115291;28;20248;-79
2023/04/14 01:36:33;;;;;;;1.53;0.93;;;8.40;99.90;;;;;;5114710;28;20255;-78
2023/04/14 01:39:04;;;;;;;3.60;0.80;;;8.40;99.90;;;;;;5115023;28;20715;-79
2023/04/14 01:41:33;;;;;;;2.03;1.20;;;8.30;99.90;;;;;;5114715;28;20307;-82
2023/04/14 01:44:03;;;;;;;4.20;2.20;;;8.30;99.90;;;;;;5115170;28;20233;-85
2023/04/14 01:46:32;;;;;;;2.33;1.10;;;8.30;99.90;;;;;;5114554;28;20236;-82
2023/04/14 01:48:59;;;;;;;3.73;2.00;;;8.30;99.90;;;;;;5114711;28;20684;-80
2023/04/14 01:51:28;;;;;;;2.23;1.57;;;8.30;99.90;;;;;;5114359;28;20679;-82
2023/04/14 01:53:57;;;;;;;1.33;0.93;;;8.30;99.90;;;;;;5114746;28;20236;-76
2023/04/14 01:56:26;;;;;;;4.00;0.90;;;8.30;99.90;;;;;;5115067;28;20201;-81
2023/04/14 01:58:57;;;;;;;10.90;3.10;;;8.30;99.90;;;;;;5114726;28;20209;-78
2023/04/14 02:01:26;;;;;;;1.33;0.97;;;8.30;99.90;;;;;;5115145;28;20236;-80
2023/04/14 02:03:55;;;;;;;5.50;1.37;;;8.30;99.90;;;;;;5114707;28;20208;-78
2023/04/14 02:06:23;;;;;;;2.10;1.17;;;8.30;99.90;;;;;;5115058;28;20228;-79
2023/04/14 02:08:51;;;;;;;4.13;0.90;;;8.30;99.90;;;;;;5114802;28;20229;-81
2023/04/14 02:11:19;;;;;;;4.37;1.37;;;8.30;99.90;;;;;;5114411;28;20243;-79
2023/04/14 02:13:48;;;;;;;5.50;2.03;;;8.30;99.90;;;;;;5113845;28;20236;-80
2023/04/14 02:16:15;;;;;;;4.17;1.47;;;8.40;99.90;;;;;;5114221;28;20771;-79
2023/04/14 02:18:42;;;;;;;2.67;1.13;;;8.40;99.90;;;;;;5114121;28;20255;-77
2023/04/14 02:21:11;;;;;;;2.53;0.83;;;8.40;99.90;;;;;;5114473;28;20243;-80
2023/04/14 02:23:38;;;;;;;2.87;1.27;;;8.40;99.90;;;;;;5113790;28;20236;-79
2023/04/14 02:26:10;;;;;;;4.80;1.30;;;8.40;99.90;;;;;;5114346;28;20197;-79
2023/04/14 02:28:46;;;;;;;3.70;1.00;;;8.50;99.90;;;;;;5113373;28;20264;-78
2023/04/14 02:31:19;;;;;;;2.03;1.30;;;8.50;99.90;;;;;;5113825;28;20240;-82
2023/04/14 02:33:48;;;;;;;2.43;1.87;;;8.50;99.90;;;;;;5113535;28;20770;-84
2023/04/14 02:36:20;;;;;;;3.90;1.20;;;8.50;99.90;;;;;;5114133;28;20293;-81
2023/04/14 02:38:52;;;;;;;3.13;1.10;;;8.50;99.90;;;;;;5113631;28;20244;-83
2023/04/14 02:41:24;;;;;;;2.77;0.70;;;8.50;99.90;;;;;;5113806;28;20258;-78
2023/04/14 02:44:03;;;;;;;6.00;1.43;;;8.50;99.90;;;;;;5113706;28;20244;-73
2023/04/14 02:46:37;;;;;;;2.30;0.90;;;8.60;99.90;;;;;;5113174;28;20243;-77
2023/04/14 02:49:06;;;;;;;1.80;1.10;;;8.60;99.90;;;;;;5113576;28;20266;-76
2023/04/14 02:51:36;;;;;;;2.30;0.83;;;8.60;99.90;;;;;;5113216;28;20212;-78
2023/04/14 02:54:04;;;;;;;1.83;1.13;;;8.50;99.90;;;;;;5113450;28;20236;-78
2023/04/14 02:56:31;;;;;;;2.90;1.43;;;8.50;99.90;;;;;;5113100;28;20236;-81
2023/04/14 02:59:00;;;;;;;2.97;1.03;;;8.40;99.90;;;;;;5113364;28;20228;-75
2023/04/14 03:01:28;;;;;;;2.10;1.20;;;8.50;99.90;;;;;;5113012;28;20250;-75
2023/04/14 03:03:57;;;;;;;1.80;1.10;;;8.40;99.90;;;;;;5113392;28;20232;-74
2023/04/14 03:06:26;;;;;;;3.43;0.60;;;8.40;99.90;;;;;;5113402;28;20237;-75
2023/04/14 03:08:56;;;;;;;4.23;1.17;;;8.40;99.90;;;;;;5113574;28;20285;-79
2023/04/14 03:11:25;;;;;;;2.67;0.70;;;8.50;99.90;;;;;;5113170;28;20212;-78
2023/04/14 03:13:54;;;;;;;1.87;0.80;;;8.50;99.90;;;;;;5113589;28;20233;-79
2023/04/14 03:16:23;;;;;;;2.93;1.07;;;8.50;99.90;;;;;;5113445;28;20228;-79
2023/04/14 03:18:53;;;;;;;0.93;0.87;;;8.50;99.90;;;;;;5113218;28;20250;-79
2023/04/14 03:21:21;;;;;;;4.43;0.90;;;8.50;99.90;;;;;;5113338;28;20237;-80
2023/04/14 03:23:49;;;;;;;1.93;0.90;;;8.50;99.90;;;;;;5112763;28;20651;-78
2023/04/14 03:26:21;;;;;;;3.33;0.97;;;8.60;99.90;;;;;;5112938;28;20291;-85
2023/04/14 03:28:52;;;;;;;5.23;0.83;;;8.50;99.90;;;;;;5112601;28;20727;-84
2023/04/14 03:31:21;;;;;;;2.70;0.80;;;8.50;99.90;;;;;;5113125;28;20201;-84
2023/04/14 03:33:54;;;;;;;2.00;0.80;;;8.60;99.90;;;;;;5112865;28;20247;-84
2023/04/14 03:36:22;;;;;;;5.00;1.27;;;8.60;99.90;;;;;;5112556;28;20205;-79
2023/04/14 03:38:54;;;;;;;1.90;0.80;;;8.60;99.90;;;;;;5112270;28;20236;-78
2023/04/14 03:41:25;;;;;;;4.03;0.70;;;8.60;99.90;;;;;;5112851;28;20209;-78
2023/04/14 03:43:55;;;;;;;1.57;0.70;;;8.50;99.90;;;;;;5112596;28;20224;-78
2023/04/14 03:46:25;;;;;;;2.27;1.43;;;8.50;99.90;;;;;;5112845;28;20197;-78
2023/04/14 03:48:53;;;;;;;1.07;0.63;;;8.50;99.90;;;;;;5112664;28;20844;-77
2023/04/14 03:51:22;;;;;;;2.53;1.20;;;8.50;99.90;;;;;;5112844;28;20243;-78
2023/04/14 03:53:50;;;;;;;7.20;1.43;;;8.50;99.90;;;;;;5112096;28;20205;-78
2023/04/14 03:56:19;;;;;;;2.80;0.73;;;8.50;99.90;;;;;;5111860;28;20200;-77
2023/04/14 03:58:50;;;;;;;2.07;0.77;;;8.60;99.90;;;;;;5112045;28;20273;-78
2023/04/14 04:01:18;;;;;;;2.47;0.80;;;8.60;99.90;;;;;;5111989;28;20201;-78
2023/04/14 04:03:47;;;;;;;1.90;1.23;;;8.60;99.90;;;;;;5111938;28;20211;-79
2023/04/14 04:06:14;;;;;;;1.73;0.90;;;8.60;99.90;;;;;;5112172;28;20200;-79
2023/04/14 04:08:42;;;;;;;2.97;0.93;;;8.60;99.90;;;;;;5111670;28;20312;-79
2023/04/14 04:11:10;;;;;;;2.80;1.10;;;8.60;99.90;;;;;;5111613;28;20259;-79
2023/04/14 04:13:39;;;;;;;2.17;0.67;;;8.50;99.90;;;;;;5111824;28;20281;-81
2023/04/14 04:16:09;;;;;;;0.90;0.43;;;8.60;99.90;;;;;;5112153;28;20242;-78
2023/04/14 04:18:39;;;;;;;1.67;1.13;;;8.50;99.90;;;;;;5111533;28;20204;-80
2023/04/14 04:21:06;;;;;;;4.73;1.80;;;8.40;99.90;;;;;;5111851;28;20695;-80
2023/04/14 04:23:37;;;;;;;5.47;0.60;;;8.30;99.90;;;;;;5111402;28;20237;-81
2023/04/14 04:26:04;;;;;;;3.00;1.10;;;8.30;99.90;;;;;;5111404;28;20695;-81
2023/04/14 04:28:31;;;;;;;2.03;0.80;;;8.20;99.90;;;;;;5111124;28;20303;-82
2023/04/14 04:31:00;;;;;;;3.20;1.20;;;8.10;99.90;;;;;;5111765;28;20247;-77
2023/04/14 04:33:30;;;;;;;1.00;0.60;;;8.10;99.90;;;;;;5111722;28;20232;-82
2023/04/14 04:35:57;;;;;;;1.97;0.90;;;8.10;99.90;;;;;;5112525;28;20243;-82
2023/04/14 04:38:25;;;;;;;3.73;1.87;;;8.20;99.90;;;;;;5112366;28;20251;-82
2023/04/14 04:40:51;;;;;;;3.67;1.40;;;8.40;99.90;;;;;;5112544;28;20205;-79
2023/04/14 04:43:18;;;;;;;0.80;0.50;;;8.40;99.90;;;;;;5111308;28;20601;-79
2023/04/14 04:45:59;;;;;;;0.80;0.80;;;8.40;99.90;;;;;;5111298;28;20592;-79
2023/04/14 04:48:27;;;;;;;2.10;1.20;;;8.30;99.90;;;;;;5110988;28;20224;-79
2023/04/14 04:50:54;;;;;;;2.60;1.13;;;8.40;99.90;;;;;;5112031;28;20205;-78
2023/04/14 04:53:21;;;;;;;0.83;0.60;;;8.40;99.90;;;;;;5111593;28;20236;-80
2023/04/14 04:55:48;;;;;;;1.43;0.80;;;8.40;99.90;;;;;;5111158;28;20213;-79
2023/04/14 04:58:15;;;;;;;2.00;0.97;;;8.50;99.90;;;;;;5110918;28;20244;-80
2023/04/14 05:00:42;;;;;;;2.53;0.90;;;8.50;99.90;;;;;;5110735;28;20240;-80
2023/04/14 05:03:09;;;;;;;2.03;1.37;;;8.50;99.90;;;;;;5109364;28;20201;-80
2023/04/14 05:05:37;;;;;;;2.10;1.93;;;8.50;99.90;;;;;;5110629;28;20654;-80
2023/04/14 05:08:04;;;;;;;1.20;0.60;;;8.50;99.90;;;;;;5112016;28;20228;-78
2023/04/14 05:10:35;;;;;;;4.97;2.00;;;8.50;99.90;;;;;;5110626;28;20236;-74
2023/04/14 05:13:02;;;;;;;2.00;1.57;;;8.60;99.90;;;;;;5111119;28;20200;-78
2023/04/14 05:15:29;;;;;;;2.37;1.37;;;8.50;99.90;;;;;;5110597;28;20197;-78
2023/04/14 05:17:57;;;;;;;1.93;1.33;;;8.60;99.90;;;;;;5111223;28;20244;-77
2023/04/14 05:20:25;;;;;;;3.47;1.70;;;8.60;99.90;;;;;;5111394;28;20593;-83
2023/04/14 05:22:53;;;;;;;3.00;2.00;;;8.60;99.90;;;;;;5111485;28;20232;-82
2023/04/14 05:25:20;;;;;;;3.53;1.87;;;8.60;99.90;;;;;;5112333;28;20201;-83
2023/04/14 05:27:47;;;;;;;4.17;1.43;;;8.60;99.90;;;;;;5116075;28;20265;-77
2023/04/14 05:30:14;;;;;;;4.07;1.63;;;8.50;99.90;;;;;;5110189;28;20676;-84
2023/04/14 05:32:41;;;;;;;3.13;1.57;;;8.50;99.90;;;;;;5111057;28;20236;-84
2023/04/14 05:35:08;;;;;;;2.10;1.83;;;8.50;99.90;;;;;;5111484;28;20232;-84
2023/04/14 05:37:35;;;;;;;1.63;0.90;;;8.50;99.90;;;;;;5113573;28;20244;-84
2023/04/14 05:40:04;;;;;;;2.63;1.17;;;8.60;99.90;;;;;;5111170;28;20228;-85
2023/04/14 05:42:31;;;;;;;1.23;0.70;;;8.60;99.90;;;;;;5110600;28;20587;-84
2023/04/14 05:44:58;;;;;;;4.47;1.60;;;8.60;99.90;;;;;;5111427;28;20232;-84
2023/04/14 05:47:25;;;;;;;2.03;0.97;;;8.60;99.90;;;;;;5110772;28;20663;-77
2023/04/14 05:49:52;;;;;;;1.40;0.80;;;8.60;99.90;;;;;;5111336;28;20275;-84
2023/04/14 05:52:19;;;;;;;3.40;1.17;;;8.60;99.90;;;;;;5110725;28;20241;-83
2023/04/14 05:54:46;;;;;;;1.90;1.50;;;8.60;99.90;;;;;;5110572;28;20200;-83
2023/04/14 05:57:14;;;;;;;7.00;1.23;;;8.60;99.90;;;;;;5111033;28;20205;-83
2023/04/14 05:59:41;;;;;;;3.50;1.70;;;8.70;99.90;;;;;;5112872;28;20236;-83
2023/04/14 06:02:08;;;;;;;1.33;0.80;;;8.80;99.90;;;;;;5114893;28;20243;-84
2023/04/14 06:04:35;;;;;;;1.63;0.90;;;9.00;99.90;;;;;;5113902;28;20251;-82
2023/04/14 06:07:02;;;;;;;1.87;1.53;;;9.50;99.90;;;;;;5114261;28;20684;-84
2023/04/14 06:09:30;;;;;;;3.17;1.33;;;9.50;99.90;;;;;;5114006;28;20232;-83
2023/04/14 06:11:57;;;;;;;4.83;1.63;;;9.40;99.90;;;;;;5114263;28;20217;-83
2023/04/14 06:14:25;;;;;;;4.10;1.47;;;9.50;99.90;;;;;;5114602;28;20257;-83
2023/04/14 06:16:54;;;;;;;2.37;0.93;;;9.40;99.90;;;;;;5114821;28;20201;-83
2023/04/14 06:19:21;;;;;;;3.10;1.50;;;9.30;99.90;;;;;;5114499;28;20240;-82
2023/04/14 06:21:48;;;;;;;4.67;2.00;;;9.40;99.90;;;;;;5113660;28;20201;-83
2023/04/14 06:24:15;;;;;;;3.37;1.00;;;9.60;99.90;;;;;;5114053;28;20251;-82
2023/04/14 06:26:42;;;;;;;2.90;1.37;;;9.60;99.90;;;;;;5112432;27;20235;-81
2023/04/14 06:29:09;;;;;;;4.23;1.67;;;9.60;99.90;;;;;;5112349;27;20237;-81
2023/04/14 06:31:37;;;;;;;6.30;1.13;;;9.60;99.90;;;;;;5113090;28;20258;-80
2023/04/14 06:34:04;;;;;;;4.60;0.80;;;9.80;99.90;;;;;;5113530;28;20296;-82
2023/04/14 06:36:31;;;;;;;3.33;1.27;;;10.00;99.90;;;;;;5095319;28;20240;-81
2023/04/14 06:38:58;;;;;;;2.80;2.00;;;10.20;99.90;;;;;;5113762;28;20232;-72
2023/04/14 06:41:25;;;;;;;3.03;1.20;;;10.20;99.90;;;;;;5113702;28;20233;-76
2023/04/14 06:43:52;;;;;;;4.57;0.90;;;10.30;99.90;;;;;;5114130;28;20250;-80
2023/04/14 06:46:19;;;;;;;2.20;1.73;;;10.20;99.90;;;;;;5113871;28;20240;-78
2023/04/14 06:48:47;;;;;;;3.33;1.40;;;10.10;99.90;;;;;;5113597;28;20197;-83
2023/04/14 06:51:14;;;;;;;2.00;1.33;;;10.10;99.90;;;;;;5113184;28;20232;-79
2023/04/14 06:53:41;;;;;;;8.27;7.43;;;10.30;99.90;;;;;;5113117;28;20212;-78
2023/04/14 06:56:08;;;;;;;3.47;1.97;;;10.40;99.90;;;;;;5113183;28;20244;-77
2023/04/14 06:58:35;;;;;;;7.47;2.17;;;10.40;99.90;;;;;;5112750;27;20247;-77
2023/04/14 07:01:03;;;;;;;3.60;1.70;;;10.70;99.90;;;;;;5112762;27;20236;-77
2023/04/14 07:03:31;;;;;;;3.93;1.87;;;10.80;99.90;;;;;;5112630;28;20638;-76
2023/04/14 07:06:04;;;;;;;10.23;2.43;;;10.80;99.90;;;;;;5113042;28;20684;-77
2023/04/14 07:08:33;;;;;;;4.10;1.57;;;10.90;99.90;;;;;;5113023;28;20205;-78
2023/04/14 07:11:01;;;;;;;4.90;2.50;;;10.90;99.90;;;;;;5111598;28;20331;-76
2023/04/14 07:13:28;;;;;;;4.57;2.17;;;10.80;99.90;;;;;;5112567;28;20215;-76
2023/04/14 07:15:55;;;;;;;1.43;1.33;;;10.80;99.90;;;;;;5113149;28;20247;-77
2023/04/14 07:18:22;;;;;;;1.23;0.90;;;11.00;99.90;;;;;;5113161;28;20263;-77
2023/04/14 07:20:50;;;;;;;3.20;1.27;;;11.20;99.90;;;;;;5112500;28;20209;-76
2023/04/14 07:23:19;;;;;;;1.93;1.30;;;11.20;99.90;;;;;;5112951;28;20244;-77
2023/04/14 07:25:50;;;;;;;3.93;1.90;;;11.20;99.90;;;;;;5112578;28;20688;-76
2023/04/14 07:28:17;;;;;;;7.93;2.43;;;11.50;99.90;;;;;;5112781;28;20205;-76
2023/04/14 07:30:44;;;;;;;6.70;2.47;;;11.60;99.90;;;;;;5111459;28;20263;-77
2023/04/14 07:33:12;;;;;;;5.40;1.40;;;11.70;99.90;;;;;;5111263;27;20288;-75
2023/04/14 07:35:39;;;;;;;7.63;1.60;;;11.70;99.90;;;;;;5112266;28;20567;-77
2023/04/14 07:38:06;;;;;;;5.85;1.60;;;11.70;99.90;;;;;;5112679;28;20251;-78
2023/04/14 07:40:35;;;;;;;3.55;2.25;;;11.60;99.90;;;;;;5112188;28;20671;-77
2023/04/14 07:43:02;;;;;;;4.55;2.35;;;11.60;99.90;;;;;;5112572;28;20427;-77
2023/04/14 07:45:30;;;;;;;4.18;1.83;;;11.70;99.90;;;;;;5112254;28;20232;-76
2023/04/14 07:47:57;;;;;;;2.25;1.77;;;11.30;99.90;;;;;;5112182;28;20205;-77
2023/04/14 07:50:24;;;;;;;6.10;2.53;;;11.30;99.90;;;;;;5112622;28;20271;-77
2023/04/14 07:52:51;;;;;;;3.17;1.80;;;11.50;99.90;;;;;;5112604;28;20201;-76
2023/04/14 07:55:18;;;;;;;1.70;1.60;;;11.60;99.90;;;;;;5112348;28;20242;-77
2023/04/14 07:57:47;;;;;;;0.93;0.77;;;11.60;99.90;;;;;;5111948;28;20266;-77
2023/04/14 08:00:15;;;;;;;2.25;1.45;;;11.60;99.90;;;;;;5112139;28;20245;-77
2023/04/14 08:02:42;;;;;;;3.28;1.20;;;11.80;99.90;;;;;;5111780;28;20196;-77
2023/04/14 08:05:08;;;;;;;2.63;1.40;;;11.90;99.90;;;;;;5112054;28;20205;-77
2023/04/14 08:07:36;;;;;;;2.22;1.02;;;11.90;99.90;;;;;;5111745;28;20239;-77
2023/04/14 08:10:03;;;;;;;3.65;1.17;;;11.80;99.90;;;;;;5111925;28;20691;-77
2023/04/14 08:12:30;;;;;;;1.75;1.65;;;12.00;99.90;;;;;;5111650;28;20201;-76
2023/04/14 08:14:58;;;;;;;3.58;1.15;;;12.00;99.90;;;;;;5112042;28;20201;-75
2023/04/14 08:17:26;;;;;;;1.75;0.82;;;12.80;99.90;;;;;;5111554;28;20224;-75
2023/04/14 08:19:53;;;;;;;2.80;1.10;;;12.80;99.90;;;;;;5111033;28;20240;-78
2023/04/14 08:22:20;;;;;;;1.40;0.82;;;12.70;99.90;;;;;;5102053;28;20248;-78
2023/04/14 08:24:47;;;;;;;0.68;0.68;;;12.80;99.90;;;;;;5109754;27;20215;-77
2023/04/14 08:27:14;;;;;;;3.47;1.23;;;13.20;99.90;;;;;;5111396;28;20208;-78
2023/04/14 08:29:41;;;;;;;2.55;1.20;;;13.10;99.90;;;;;;5110596;28;20549;-80
2023/04/14 08:32:09;;;;;;;1.13;0.90;;;13.10;99.90;;;;;;5108575;28;20225;-80
2023/04/14 08:34:36;;;;;;;2.22;1.42;;;13.40;99.90;;;;;;5110874;28;20236;-78
2023/04/14 08:37:03;;;;;;;1.23;0.82;;;13.60;99.90;;;;;;5110792;28;20235;-79
2023/04/14 08:39:30;;;;;;;0.55;0.55;;;13.30;99.90;;;;;;5103938;28;20231;-76
2023/04/14 08:41:57;;;;;;;1.67;0.60;;;12.90;99.90;;;;;;5110985;28;20248;-75
2023/04/14 08:44:24;;;;;;;1.50;0.63;;;12.70;99.90;;;;;;5110873;28;20240;-78
2023/04/14 08:46:52;;;;;;;1.38;0.70;;;12.60;99.90;;;;;;5111240;28;20237;-77
2023/04/14 08:49:32;;;;;;;2.67;1.02;;;12.50;99.90;;;;;;5117874;27;20678;-76
2023/04/14 08:52:01;;;;;;;0.95;0.95;;;12.40;99.90;;;;;;5131583;27;20235;-76
2023/04/14 08:54:29;;;;;;;0.60;0.60;;;12.50;99.90;;;;;;5131181;27;20634;-76
2023/04/14 08:56:58;;;;;;;1.48;0.75;;;12.40;99.90;;;;;;5114648;27;20636;-76
2023/04/14 08:59:26;;;;;;;1.35;1.00;;;12.30;99.90;;;;;;5108483;28;20205;-73
2023/04/14 09:01:54;;;;;;;1.20;0.98;;;12.40;99.90;;;;;;5110472;28;20219;-80
2023/04/14 09:04:23;;;;;;;1.00;0.70;;;12.50;99.90;;;;;;5111214;28;20235;-81
2023/04/14 09:06:51;;;;;;;0.73;0.68;;;12.50;99.90;;;;;;5109811;28;20251;-83
2023/04/14 09:09:18;;;;;;;0.95;0.50;;;12.60;99.90;;;;;;5110262;28;20205;-81
2023/04/14 09:11:45;;;;;;;0.50;0.50;;;12.70;99.90;;;;;;5110402;28;20271;-77
2023/04/14 09:14:14;;;;;;;0.40;0.40;;;12.70;99.90;;;;;;5111004;28;20232;-82
2023/04/14 09:16:41;;;;;;;0.57;0.43;;;12.70;99.90;;;;;;5110812;28;20684;-82
2023/04/14 09:19:09;;;;;;;0.30;0.30;;;12.80;99.90;;;;;;5111268;28;20233;-83
2023/04/14 09:21:40;;;;;;;1.23;0.40;;;12.60;99.90;;;;;;5111072;28;20306;-83
2023/04/14 09:24:07;;;;;;;1.10;0.75;;;12.50;99.90;;;;;;5111178;28;20207;-79
2023/04/14 09:26:34;;;;;;;1.33;0.70;;;12.60;99.90;;;;;;5111056;28;20232;-82
2023/04/14 09:29:01;;;;;;;1.42;0.47;;;12.90;99.90;;;;;;5110886;28;20243;-83
2023/04/14 09:31:28;;;;;;;2.45;0.70;;;13.00;99.90;;;;;;5110693;28;20691;-81
2023/04/14 09:33:56;;;;;;;1.80;0.70;;;13.10;99.90;;;;;;5112235;28;20642;-76
2023/04/14 09:36:24;;;;;;;0.70;0.55;;;13.10;99.90;;;;;;5115339;28;20203;-78
2023/04/14 09:38:53;;;;;;;1.35;0.77;;;13.30;99.90;;;;;;5115645;28;20303;-80
2023/04/14 09:41:21;;;;;;;1.10;1.00;;;13.70;99.90;;;;;;5115225;28;20235;-81
2023/04/14 09:43:49;;;;;;;3.78;1.00;;;14.10;99.90;;;;;;5114531;28;20660;-80
2023/04/14 09:46:16;;;;;;;3.08;1.17;;;14.00;99.90;;;;;;5115001;28;20197;-81
2023/04/14 09:48:54;;;;;;;1.77;0.73;;;14.10;99.90;;;;;;5114495;28;20211;-82
2023/04/14 09:51:27;;;;;;;1.48;1.10;;;13.70;99.90;;;;;;5115166;28;20232;-79
2023/04/14 09:54:01;;;;;;;0.80;0.60;;;13.70;99.90;;;;;;5115109;28;20228;-82
2023/04/14 09:56:28;;;;;;;1.80;1.00;;;13.70;99.90;;;;;;5114300;28;20205;-80
2023/04/14 09:58:59;;;;;;;0.70;0.50;;;13.90;99.90;;;;;;5114800;28;20289;-74
2023/04/14 10:01:30;;;;;;;0.63;0.63;;;13.70;99.90;;;;;;5113801;28;20213;-77
2023/04/14 10:03:57;;;;;;;0.65;0.47;;;13.20;99.90;;;;;;5114445;28;20208;-83
2023/04/14 10:06:25;;;;;;;0.73;0.50;;;13.10;99.90;;;;;;5115028;28;20233;-80
2023/04/14 10:08:53;;;;;;;0.88;0.77;;;13.00;99.90;;;;;;5114876;28;20208;-77
2023/04/14 10:11:23;;;;;;;0.55;0.40;;;13.00;99.90;;;;;;5114687;28;20260;-76
2023/04/14 10:13:53;;;;;;;0.40;0.40;;;13.10;99.90;;;;;;5114944;28;20197;-79
2023/04/14 10:16:21;;;;;;;1.77;0.60;;;13.20;99.90;;;;;;5112946;28;20200;-73
2023/04/14 10:18:48;;;;;;;0.85;0.40;;;13.30;99.90;;;;;;5110840;28;20204;-72
2023/04/14 10:21:16;;;;;;;0.85;0.60;;;13.30;99.90;;;;;;5114403;28;20208;-82
2023/04/14 10:23:44;;;;;;;0.70;0.55;;;13.50;99.90;;;;;;5113825;28;20208;-76
2023/04/14 10:26:12;;;;;;;1.30;0.32;;;13.50;99.90;;;;;;5113991;28;20236;-76
2023/04/14 10:28:43;;;;;;;0.70;0.63;;;13.40;99.90;;;;;;5113298;28;20240;-79
2023/04/14 10:31:14;;;;;;;0.50;0.50;;;13.50;99.90;;;;;;5114101;28;20232;-77
2023/04/14 10:33:42;;;;;;;0.77;0.50;;;13.60;99.90;;;;;;5113750;28;20208;-78
2023/04/14 10:36:09;;;;;;;0.80;0.68;;;13.60;99.90;;;;;;5113892;28;20228;-76
2023/04/14 10:38:42;;;;;;;0.47;0.43;;;13.60;99.90;;;;;;5113313;28;20676;-82
2023/04/14 10:41:10;;;;;;;1.23;0.50;;;13.90;99.90;;;;;;5113860;28;20316;-80
2023/04/14 10:43:37;;;;;;;0.73;0.60;;;14.00;99.90;;;;;;5113713;28;20284;-82
2023/04/14 10:46:08;;;;;;;0.50;0.50;;;14.10;99.90;;;;;;5113702;28;20200;-81
2023/04/14 10:48:37;;;;;;;0.50;0.50;;;14.40;99.90;;;;;;5113393;28;20197;-83
2023/04/14 10:51:06;;;;;;;0.50;0.50;;;15.10;99.90;;;;;;5113396;28;20696;-81
2023/04/14 10:53:38;;;;;;;0.50;0.40;;;14.90;99.90;;;;;;5113592;28;20197;-81
2023/04/14 10:56:06;;;;;;;0.73;0.68;;;14.50;99.90;;;;;;5113489;28;20292;-79
2023/04/14 10:58:36;;;;;;;1.70;0.45;;;14.30;99.90;;;;;;5113183;28;20254;-79
2023/04/14 11:01:24;;;;;;;0.98;0.70;;;14.30;99.90;;;;;;5113565;28;20204;-80
2023/04/14 11:03:51;;;;;;;2.03;0.77;;;14.60;99.90;;;;;;5113914;28;20204;-83
2023/04/14 11:06:51;;;;;;;0.60;0.40;;;14.80;99.90;;;;;;5113373;28;20236;-79
2023/04/14 11:09:32;;;;;;;0.57;0.28;;;14.60;99.90;;;;;;5113441;28;20196;-80
2023/04/14 11:12:04;;;;;;;0.28;0.28;;;14.50;99.90;;;;;;5112655;28;20267;-80
2023/04/14 11:14:32;;;;;;;0.50;0.43;;;14.60;99.90;;;;;;5112959;28;20287;-82
2023/04/14 11:17:02;;;;;;;0.40;0.40;;;15.10;99.90;;;;;;5112982;28;20633;-81
2023/04/14 11:19:29;;;;;;;0.50;0.50;;;15.60;99.90;;;;;;5112696;28;20213;-79
2023/04/14 11:21:56;;;;;;;0.35;0.35;;;15.80;99.90;;;;;;5113119;28;20232;-78
2023/04/14 11:24:24;;;;;;;0.50;0.50;;;15.90;99.90;;;;;;5112992;28;20623;-79
2023/04/14 11:26:53;;;;;;;0.40;0.40;;;16.20;99.90;;;;;;5113365;28;20229;-78
2023/04/14 11:29:20;;;;;;;0.40;0.40;;;16.20;99.90;;;;;;5112431;28;20204;-85
2023/04/14 11:31:59;;;;;;;0.70;0.57;;;15.70;99.90;;;;;;5112283;28;20336;-83
2023/04/14 11:34:28;;;;;;;0.50;0.50;;;15.40;99.90;;;;;;5112701;28;20215;-83
2023/04/14 11:36:56;;;;;;;0.57;0.57;;;15.30;99.90;;;;;;5111183;28;20200;-73
2023/04/14 11:39:23;;;;;;;0.77;0.70;;;15.40;99.90;;;;;;5112221;28;20239;-75
2023/04/14 11:41:50;;;;;;;1.77;1.17;;;15.40;99.90;;;;;;5112932;28;20284;-76
2023/04/14 11:44:18;;;;;;;1.48;1.30;;;15.30;99.90;;;;;;5112733;28;20207;-76
2023/04/14 11:46:45;;;;;;;1.77;0.50;;;15.80;99.90;;;;;;5112372;28;20232;-83
2023/04/14 11:49:12;;;;;;;1.70;0.65;;;16.60;99.90;;;;;;5111271;28;20246;-80
2023/04/14 11:51:41;;;;;;;0.60;0.60;;;17.00;99.90;;;;;;5109257;27;20239;-80
2023/04/14 11:54:07;;;;;;;0.57;0.57;;;16.80;99.90;;;;;;5112426;27;20240;-80
2023/04/14 11:56:36;;;;;;;0.60;0.60;;;16.40;99.90;;;;;;5095273;28;20262;-79
2023/04/14 11:59:05;;;;;;;0.40;0.40;;;15.90;99.90;;;;;;5116201;27;20257;-80
2023/04/14 12:01:32;;;;;;;0.77;0.75;;;15.90;99.90;;;;;;5115024;27;20805;-79
2023/04/14 12:04:00;;;;;;;0.68;0.68;;;16.10;99.90;;;;;;5110974;27;20232;-78
2023/04/14 12:06:28;;;;;;;0.50;0.50;;;16.70;99.90;;;;;;5111683;28;20300;-80
2023/04/14 12:09:02;;;;;;;0.63;0.63;;;16.80;99.90;;;;;;5111814;28;20240;-78
2023/04/14 12:11:29;;;;;;;1.05;0.50;;;16.70;99.90;;;;;;5111329;28;20258;-77
2023/04/14 12:13:57;;;;;;;2.30;0.50;;;16.60;99.90;;;;;;5112147;28;20273;-76
2023/04/14 12:16:25;;;;;;;0.77;0.50;;;17.20;99.90;;;;;;5111271;28;20204;-83
2023/04/14 12:18:52;;;;;;;0.80;0.40;;;17.30;99.90;;;;;;5112298;28;20300;-78
2023/04/14 12:21:20;;;;;;;0.40;0.40;;;16.90;99.90;;;;;;5111807;28;20259;-79
2023/04/14 12:23:48;;;;;;;1.40;0.30;;;17.20;99.90;;;;;;5110961;28;20201;-79
2023/04/14 12:26:17;;;;;;;0.63;0.40;;;17.30;99.90;;;;;;5111939;28;20289;-78
2023/04/14 12:28:44;;;;;;;4.03;0.60;;;17.20;99.90;;;;;;5111151;28;20248;-81
2023/04/14 12:31:11;;;;;;;0.52;0.50;;;17.10;99.90;;;;;;5111565;28;20305;-77
2023/04/14 12:33:38;;;;;;;0.50;0.50;;;16.70;99.90;;;;;;5111587;28;20734;-79
2023/04/14 12:36:07;;;;;;;0.50;0.50;;;16.20;99.90;;;;;;5111152;28;20232;-78
2023/04/14 12:38:34;;;;;;;0.60;0.60;;;15.80;99.90;;;;;;5111149;28;20201;-83
2023/04/14 12:41:01;;;;;;;0.63;0.63;;;15.40;99.90;;;;;;5111210;28;20246;-80
2023/04/14 12:43:32;;;;;;;0.55;0.32;;;15.30;99.90;;;;;;5111141;28;20300;-82
2023/04/14 12:45:59;;;;;;;0.40;0.40;;;15.40;99.90;;;;;;5111695;28;20253;-79
2023/04/14 12:48:42;;;;;;;0.30;0.30;;;15.50;99.90;;;;;;5111581;28;20240;-84
2023/04/14 12:51:11;;;;;;;1.33;0.30;;;15.20;99.90;;;;;;5111667;28;20296;-80
2023/04/14 12:53:39;;;;;;;0.40;0.40;;;15.30;99.90;;;;;;5111546;28;20281;-85
2023/04/14 12:56:10;;;;;;;0.52;0.52;;;15.40;99.90;;;;;;5111986;28;20578;-84
2023/04/14 12:58:40;;;;;;;0.50;0.40;;;15.20;99.90;;;;;;5111438;28;20196;-79
2023/04/14 13:01:07;;;;;;;0.73;0.50;;;15.20;99.90;;;;;;5111452;28;20584;-82